Terminal Aerodrome Forecast
Issued by NWS

Home | Current Version | Previous Version | Text Only | Print | Product List | Glossary On
Versions: 1 2 3 4 5 6 7 8 9 10 11 12 13 14 15 16 17 18 19 20 21
838
FTUS44 KMAF 010217 AAB
TAFPEQ
TAF AMD
KPEQ 010217Z 0102/0124 09009KT P6SM SCT080 OVC200
      TEMPO 0102/0106 VRB15G25KT 6SM TSRA BKN070CB
     FM011300 01015KT P6SM OVC035
     FM011700 03009KT P6SM SCT035 OVC040=

USA.gov is the U.S. government's official web portal to all federal, state and local government web resources and services.